Federico Fellini International Airport

LIPR · Emilia-Romagna, 意大利

罗盘
风向 的 风向 300° Federico Fellini International Airport 13/31
风: 9 kt, 3 beaufort

9 kt

1 kt
改变
0 ft 1.000 2.000 3.000 4.000 5.000
Cloud Cloud
FEW 500
Cloud Cloud Cloud Cloud
SCT 1.000
Cloud Cloud Cloud Cloud Cloud Cloud
BKN 2.500
METAR LIPR 281250Z 30009KT 6000 FEW005 SCT010 BKN025 13/13 Q1015

METAR Federico Fellini International Airport - LIPR/RMI

Federico Fellini International Airport是,意大利中的中型机场。 该机场位于纬度44,02030和经度12,61170。 该机场有一条跑道: 13/31. 本场的ICAO机场代码为LIPR。 该机场的IATA代码为RMI。 机场在Milano FIR中。

该航空气象观测是针对Federico Fellini International Airport在2024年2月28日 13:50, 当地时间进行的。

机场观察

风向为300°,速度为9 kt。

可见度为6 km。

有几云在500 ft的高度, 疏云,零星散落的云朵在1.000 ft的高度 和 碎云在2.500 ft的高度。 破损或更高的上限为2.500 ft。

温度和风寒是13 °C。 露点为13 °C,相对湿度为100%。 海平面上的气压为1015 hPa (QNH)。

白天

今天,太阳从06:48升起,在17:55降落。 这适用于Federico Fellini International Airport,世界夏令时可能有所不同。 当地时间与世界标准时间之间的时差为+1 小时。 当前,没有夏令时有效。

公司介绍

在这个机场,你可以找到跳伞中心。 本场上唯一已知的公司是Aerosports Italia。

体会

到Vliegles.nl去找飞行课程,跳伞和其他飞行体验。 浏览页面,了解Federico Fellini International Airport附近所有可用的活动。 你也可以使用搜索功能来寻找你所在地附近的特定飞行课程、跳伞或其他飞行体验。

跑道

Id 标题 侧风 逆风 侧风 %
13/31 126°-306° 9 kt 10 %

逆风成分最大的方向会被突出显示,并用于横风计算。 这并不一定意味着这个方向在使用。

乌云

500 ft FEW 几云
1.000 ft SCT 疏云,零星散落的云朵
2.500 ft BKN 碎云

温度 & 天气

温度 13 °C
露点 13 °C
相对湿度 100%
Kp-index 0 (0-9)

白天

日出
06:48
中午
12:22
日落
17:55 (3:47)

小工具

你想在你的网站上有一个关于Federico Fellini International Airport的当前航空天气(METAR)的小部件吗?

显示HTML代码
?>